Boynton Beach, FL (33436)

3:03 PM EDT on September 29, 2016 (GMT -0400)
sunny south estates | | Change Station

Elev 36 ft 26.53 °N, 80.11 °W | Updated 20 seconds ago

Overcast
Overcast
88.1 °F
Feels Like 97 °F
N
5.0
Wind Variable Wind from SW

Today
High -- | Low -- °F
--% Chance of Precip.
Yesterday
High -- | Low -- °F
Precip. -- in
Pressure 30.05 in
Visibility 10.0 miles
Clouds Mostly Cloudy 3800 ft
Mostly Cloudy 4900 ft
Mostly Cloudy 10000 ft
Heat Index 97 °F
Dew Point 74 °F
Humidity 63%
Rainfall 0.00 in
Snow Depth Not available.
7:12 AM 7:08 PM
Waning Crescent, 1% visible
METAR KPBI 291853Z COR 28012G18KT 10SM TS BKN038CB BKN049 BKN100 31/22 A3005 RMK AO2 LTG DSNT W-N TSB04 SLP175 OCNL LTGICCG NW TS NW MOV NE CB DSNT W-N T03060222
Pressure 30.05 in
Visibility 10.0 miles
Clouds Mostly Cloudy 3800 ft
Mostly Cloudy 4900 ft
Mostly Cloudy 10000 ft
Heat Index 97 °F
Dew Point 74 °F
Humidity 63%
Rainfall 0.00 in
Snow Depth Not available.
7:12 AM 7:08 PM
Waning Crescent, 1% visible
METAR KPBI 291853Z COR 28012G18KT 10SM TS BKN038CB BKN049 BKN100 31/22 A3005 RMK AO2 LTG DSNT W-N TSB04 SLP175 OCNL LTGICCG NW TS NW MOV NE CB DSNT W-N T03060222

10-Day Weather Forecast

Almanac

Astronomy

Sep. 29, 2016 Rise Set
Actual Time
Civil Twilight
Nautical Twilight
Astronomical Twilight
Moon
Length of Visible Light
Length of Day
Tomorrow will be .
, % of the Moon is Illuminated

Today's Extremes

State Highs State Lows

Community

WunderPhotos

Upload Photos

1,942,546 photos uploaded!

WunderBlog® & News

Nearby

Air Quality

  Air Quality AQ Index Pollutant
Not available.

Snow Depth

Station Depth Elevation

Earthquake Activity

City Distance Mag. Time & Date
Minimum magnitude displayed is 2.5.

Coastal Water Temperatures

Place Temperature

Stations

Nearby Weather Stations

Station Location Temp. Windchill Dew Point Humidity Wind Precip. Elev Updated Type
                   

Watches & Warnings

There are currently no watches in effect.